Time;durP1;ratioP1;P1;durP2;ratioP2;P2;SDS_P1;SDS_P2;PMS_P1;PMS_P2;Temp;Humidity;BMP_temperature;BMP_pressure;BME280_temperature;BME280_humidity;BME280_pressure;Samples;Min_cycle;Max_cycle;Signal;HPM_P1;HPM_P2
2022/06/16 00:01:54;;;;;;;5.30;4.20;;;;;;;19.26;56.73;98092.16;5050340;28;20212;-84
2022/06/16 00:04:21;;;;;;;6.83;4.30;;;;;;;19.19;56.71;98096.47;5053103;28;20216;-84
2022/06/16 00:06:47;;;;;;;7.33;4.47;;;;;;;19.14;56.95;98087.25;5052880;28;20758;-85
2022/06/16 00:09:14;;;;;;;4.20;3.77;;;;;;;19.10;57.07;98092.06;5052828;28;20251;-83
2022/06/16 00:11:40;;;;;;;4.73;4.17;;;;;;;19.05;57.22;98094.38;5053222;28;20262;-83
2022/06/16 00:14:07;;;;;;;4.57;3.97;;;;;;;19.00;57.35;98090.50;5053083;28;20615;-83
2022/06/16 00:16:33;;;;;;;4.80;4.30;;;;;;;18.98;57.80;98097.84;5053153;28;20236;-82
2022/06/16 00:19:01;;;;;;;4.03;3.60;;;;;;;19.00;57.69;98094.03;5052971;28;20669;-83
2022/06/16 00:21:28;;;;;;;4.90;4.30;;;;;;;19.02;57.90;98094.69;5052860;28;20247;-82
2022/06/16 00:23:55;;;;;;;4.47;3.93;;;;;;;19.02;58.03;98089.34;5052683;28;20721;-82
2022/06/16 00:26:24;;;;;;;4.40;4.00;;;;;;;19.04;57.73;98095.41;5052765;28;20244;-83
2022/06/16 00:28:51;;;;;;;4.57;4.17;;;;;;;19.03;56.97;98091.00;5051545;28;20254;-83
2022/06/16 00:31:20;;;;;;;4.07;3.70;;;;;;;19.00;56.48;98085.13;5053229;28;20247;-83
2022/06/16 00:33:47;;;;;;;4.27;3.87;;;;;;;18.90;57.37;98082.56;5043940;28;20254;-83
2022/06/16 00:36:15;;;;;;;4.00;3.60;;;;;;;18.83;57.77;98089.56;5052695;28;20326;-83
2022/06/16 00:38:42;;;;;;;4.27;3.87;;;;;;;18.80;58.33;98084.53;5052918;28;20240;-83
2022/06/16 00:41:10;;;;;;;4.50;3.80;;;;;;;18.82;58.11;98082.53;5052907;28;20588;-83
2022/06/16 00:43:37;;;;;;;5.10;4.60;;;;;;;18.82;57.80;98082.53;5053088;28;20273;-83
2022/06/16 00:46:06;;;;;;;4.23;3.80;;;;;;;18.80;57.79;98084.53;5046372;28;20248;-83
2022/06/16 00:48:38;;;;;;;4.20;3.80;;;;;;;18.76;58.13;98085.00;5049178;28;20247;-83
2022/06/16 00:51:09;;;;;;;4.70;4.10;;;;;;;18.72;58.30;98081.78;5052193;28;20635;-83
2022/06/16 00:53:39;;;;;;;4.33;3.80;;;;;;;18.67;59.03;98078.78;5051070;28;20213;-83
2022/06/16 00:56:08;;;;;;;4.10;3.70;;;;;;;18.65;59.79;98078.06;5054954;28;20243;-82
2022/06/16 00:58:40;;;;;;;3.90;3.60;;;;;;;18.57;60.44;98080.69;5056331;28;20243;-83
2022/06/16 01:01:07;;;;;;;4.07;3.67;;;;;;;18.48;60.72;98086.97;5056427;28;20215;-83
2022/06/16 01:06:21;;;;;;;4.93;3.90;;;;;;;18.22;62.30;98077.22;5056121;28;20223;-82
2022/06/16 01:08:53;;;;;;;3.73;3.43;;;;;;;18.13;62.77;98078.97;5056677;28;20217;-83
2022/06/16 01:14:25;;;;;;;4.93;4.47;;;;;;;18.06;65.12;98087.75;5056443;28;20269;-82
2022/06/16 01:16:57;;;;;;;7.13;4.60;;;;;;;17.99;66.19;98082.19;5056431;28;20239;-82
2022/06/16 01:19:42;;;;;;;5.67;4.80;;;;;;;17.83;66.75;98087.38;5054397;28;20674;-82
2022/06/16 01:22:15;;;;;;;4.90;4.40;;;;;;;17.71;67.00;98079.72;5057231;28;20574;-83
2022/06/16 01:25:07;;;;;;;5.07;4.57;;;;;;;17.61;67.99;98087.81;5057801;28;20243;-83
2022/06/16 01:28:01;;;;;;;5.20;4.60;;;;;;;17.53;69.57;98081.53;5057074;28;20243;-82
2022/06/16 01:30:36;;;;;;;6.30;5.10;;;;;;;17.45;71.82;98079.63;5042305;28;20250;-82
2022/06/16 01:33:09;;;;;;;5.20;4.80;;;;;;;17.40;73.36;98078.38;5055320;28;20700;-82
2022/06/16 01:35:41;;;;;;;6.43;5.30;;;;;;;17.35;74.95;98076.13;5055433;28;20271;-82
2022/06/16 01:38:28;;;;;;;6.43;5.00;;;;;;;17.30;76.23;98073.06;5039509;28;20232;-84
2022/06/16 01:41:03;;;;;;;5.53;5.03;;;;;;;17.29;77.26;98074.06;5054926;28;20697;-82
2022/06/16 01:43:35;;;;;;;5.20;4.63;;;;;;;17.22;78.43;98070.31;5055649;28;20207;-82
2022/06/16 01:46:09;;;;;;;6.30;4.97;;;;;;;17.19;78.99;98064.41;5037574;28;20307;-83
2022/06/16 01:48:37;;;;;;;5.90;5.40;;;;;;;17.16;79.92;98065.56;5055323;28;20231;-84
2022/06/16 01:51:10;;;;;;;5.57;5.07;;;;;;;17.14;80.87;98061.34;5055202;28;20266;-83
2022/06/16 01:53:43;;;;;;;5.83;5.27;;;;;;;17.11;81.34;98061.63;5054807;28;20687;-81
2022/06/16 01:56:17;;;;;;;7.10;5.70;;;;;;;17.09;81.91;98052.94;5055013;28;20279;-83
2022/06/16 01:58:51;;;;;;;6.10;5.50;;;;;;;17.05;82.21;98047.06;5055090;28;20215;-83
2022/06/16 02:01:22;;;;;;;5.53;5.03;;;;;;;17.01;82.73;98056.34;5054669;28;20220;-84
2022/06/16 02:03:56;;;;;;;5.97;5.40;;;;;;;17.01;83.22;98067.00;5054602;28;20591;-84
2022/06/16 02:06:25;;;;;;;6.30;5.70;;;;;;;16.93;84.57;98058.91;5054079;28;20250;-84
2022/06/16 02:08:56;;;;;;;7.43;6.13;;;;;;;16.90;84.80;98053.88;5054535;28;20248;-84
2022/06/16 02:11:27;;;;;;;6.90;5.90;;;;;;;16.88;85.48;98050.50;5053168;28;20240;-82
2022/06/16 02:13:58;;;;;;;8.50;6.80;;;;;;;16.85;86.32;98050.81;5054636;28;20674;-84
2022/06/16 02:16:30;;;;;;;7.10;6.33;;;;;;;16.84;87.55;98051.78;5054443;28;20634;-82
2022/06/16 02:18:58;;;;;;;7.70;6.47;;;;;;;16.85;88.70;98055.28;5054848;28;20230;-82
2022/06/16 02:21:33;;;;;;;6.97;6.37;;;;;;;16.85;89.40;98055.28;5039037;28;20212;-83
2022/06/16 02:24:01;;;;;;;7.77;6.97;;;;;;;16.84;90.04;98049.13;5054696;28;20254;-82
2022/06/16 02:26:28;;;;;;;7.50;6.80;;;;;;;16.81;90.58;98052.06;5054630;28;20236;-83
2022/06/16 02:28:56;;;;;;;7.53;6.60;;;;;;;16.78;90.90;98051.53;5054515;28;20294;-82
2022/06/16 02:31:39;;;;;;;7.50;6.70;;;;;;;16.74;91.40;98042.97;5054188;28;20219;-83
2022/06/16 02:34:15;;;;;;;7.87;7.10;;;;;;;16.70;92.30;98041.56;5054307;28;20250;-81
2022/06/16 02:36:56;;;;;;;8.60;7.70;;;;;;;16.69;93.17;98050.56;5054014;28;20263;-83
2022/06/16 02:39:38;;;;;;;7.73;6.90;;;;;;;16.65;93.45;98038.50;5052623;28;20216;-81
2022/06/16 02:42:17;;;;;;;7.63;6.93;;;;;;;16.61;93.42;98034.47;5054433;28;20299;-82
2022/06/16 02:44:53;;;;;;;8.20;7.40;;;;;;;16.52;93.43;98029.97;5054272;28;20246;-81
2022/06/16 02:50:12;;;;;;;7.43;6.73;;;;;;;16.41;92.84;98030.13;5053867;28;20216;-81
2022/06/16 02:52:45;;;;;;;7.33;6.63;;;;;;;16.34;92.92;98026.34;5053926;28;20306;-84
2022/06/16 02:55:17;;;;;;;7.60;6.83;;;;;;;16.28;94.09;98024.25;5053581;28;20692;-83
2022/06/16 02:57:47;;;;;;;7.93;7.13;;;;;;;16.29;95.30;98020.63;5053577;28;20688;-83
2022/06/16 03:00:17;;;;;;;7.97;7.23;;;;;;;16.31;96.20;98029.31;5053686;28;20215;-82
2022/06/16 03:02:45;;;;;;;8.57;7.67;;;;;;;16.31;96.63;98023.97;5038125;28;20218;-82
2022/06/16 03:05:14;;;;;;;8.50;7.17;;;;;;;16.28;97.08;98029.59;5052195;28;20212;-82
2022/06/16 03:07:42;;;;;;;7.37;6.67;;;;;;;16.25;97.38;98024.56;5053423;28;20212;-82
2022/06/16 03:10:11;;;;;;;7.73;6.77;;;;;;;16.29;98.04;98031.28;5053676;28;20212;-82
2022/06/16 03:12:38;;;;;;;7.93;7.10;;;;;;;16.27;98.93;98033.25;5053594;28;20648;-82
2022/06/16 03:15:06;;;;;;;8.13;7.33;;;;;;;16.31;99.02;98029.31;5053567;28;20550;-82
2022/06/16 03:17:32;;;;;;;8.33;7.53;;;;;;;16.33;99.22;98027.31;5053104;28;20236;-82
2022/06/16 03:20:00;;;;;;;7.90;7.20;;;;;;;16.32;99.44;98025.66;5052499;28;20216;-81
2022/06/16 03:22:27;;;;;;;7.97;7.17;;;;;;;16.32;99.72;98028.31;5053377;28;20216;-81
2022/06/16 03:24:53;;;;;;;8.00;7.20;;;;;;;16.31;100.00;98023.97;5053601;28;20208;-82
2022/06/16 03:27:20;;;;;;;7.50;6.80;;;;;;;16.29;100.00;98030.44;5053518;28;20214;-82
2022/06/16 03:29:46;;;;;;;9.07;7.60;;;;;;;16.33;100.00;98042.50;5051714;28;20584;-82
2022/06/16 03:32:13;;;;;;;8.27;7.47;;;;;;;16.34;100.00;98045.00;5052961;28;20208;-81
2022/06/16 03:34:39;;;;;;;8.00;7.20;;;;;;;16.35;100.00;98043.19;5052920;28;20212;-81
2022/06/16 03:37:09;;;;;;;8.53;7.57;;;;;;;16.42;100.00;98042.53;5052760;28;20717;-82
2022/06/16 03:39:35;;;;;;;8.43;7.63;;;;;;;16.44;100.00;98051.22;5053144;28;20236;-81
2022/06/16 03:42:02;;;;;;;7.50;6.70;;;;;;;16.48;99.32;98047.28;5052924;28;20696;-81
2022/06/16 03:44:28;;;;;;;8.17;7.37;;;;;;;16.58;98.31;98048.06;5053239;28;20235;-81
2022/06/16 03:46:55;;;;;;;7.43;6.77;;;;;;;16.59;97.84;98052.41;5052805;28;20230;-81
2022/06/16 03:49:21;;;;;;;7.43;6.67;;;;;;;16.69;96.50;98049.72;5052778;28;20213;-82
2022/06/16 03:51:48;;;;;;;7.43;6.77;;;;;;;16.76;96.23;98050.84;5052773;28;20232;-81
2022/06/16 03:54:16;;;;;;;7.30;6.60;;;;;;;16.82;95.77;98055.59;5052807;28;20212;-81
2022/06/16 03:56:42;;;;;;;7.57;6.73;;;;;;;16.85;95.37;98066.81;5051338;28;20232;-82
2022/06/16 03:59:09;;;;;;;6.83;6.23;;;;;;;16.91;95.10;98060.91;5053138;28;20216;-82
2022/06/16 04:01:35;;;;;;;6.93;6.30;;;;;;;17.01;94.46;98072.34;5053032;28;20212;-82
2022/06/16 04:04:02;;;;;;;8.70;6.50;;;;;;;17.10;93.80;98076.81;5053043;28;20578;-82
2022/06/16 04:06:31;;;;;;;7.43;6.03;;;;;;;17.19;92.97;98070.59;5053443;28;20299;-82
2022/06/16 04:08:58;;;;;;;8.43;6.70;;;;;;;17.28;92.27;98077.72;5053083;28;20216;-82
2022/06/16 04:11:28;;;;;;;7.23;6.53;;;;;;;17.42;91.30;98082.59;5052638;28;20705;-82
2022/06/16 04:14:00;;;;;;;7.30;6.60;;;;;;;17.60;89.82;98090.63;5052639;28;20222;-82
2022/06/16 04:16:27;;;;;;;6.67;6.07;;;;;;;17.81;87.97;98089.34;5052850;28;20242;-82
2022/06/16 04:18:54;;;;;;;6.37;5.77;;;;;;;18.03;86.61;98088.06;5052541;28;20222;-82
2022/06/16 04:21:21;;;;;;;7.17;6.27;;;;;;;18.25;85.01;98091.13;5035180;28;20211;-82
2022/06/16 04:23:47;;;;;;;6.53;5.93;;;;;;;18.47;83.59;98097.84;5052740;28;20349;-82
2022/06/16 04:26:14;;;;;;;6.70;6.00;;;;;;;18.65;82.17;98096.81;5052564;28;20596;-82
2022/06/16 04:28:42;;;;;;;6.77;5.77;;;;;;;18.84;81.28;98099.28;5052723;28;20214;-83
2022/06/16 04:31:08;;;;;;;6.27;5.67;;;;;;;18.98;80.73;98103.22;5055454;28;20208;-82
2022/06/16 04:33:36;;;;;;;5.93;5.43;;;;;;;19.00;80.74;98099.38;5056703;28;20211;-82
2022/06/16 04:36:04;;;;;;;6.37;5.60;;;;;;;18.93;80.76;98105.53;5056407;28;20212;-82
2022/06/16 04:38:31;;;;;;;6.00;5.30;;;;;;;18.92;80.88;98104.69;5056528;28;20242;-81
2022/06/16 04:40:58;;;;;;;6.63;6.03;;;;;;;18.94;81.05;98101.84;5056630;28;20212;-81
2022/06/16 04:43:24;;;;;;;5.67;5.13;;;;;;;19.03;80.34;98107.09;5056530;28;20216;-81
2022/06/16 04:45:52;;;;;;;6.47;5.73;;;;;;;19.12;79.25;98099.94;5056265;28;20212;-82
2022/06/16 04:48:19;;;;;;;5.87;5.37;;;;;;;19.23;78.59;98105.91;5054455;28;20677;-81
2022/06/16 04:50:46;;;;;;;5.43;4.93;;;;;;;19.35;77.96;98107.31;5056316;28;20208;-81
2022/06/16 04:53:12;;;;;;;5.47;4.80;;;;;;;19.47;77.40;98105.16;5056041;28;20581;-81
2022/06/16 04:55:39;;;;;;;5.83;5.33;;;;;;;19.60;76.86;98111.75;5056007;28;20694;-81
2022/06/16 04:58:07;;;;;;;5.27;4.80;;;;;;;19.76;76.04;98119.00;5056245;28;20242;-81
2022/06/16 05:00:34;;;;;;;5.20;4.80;;;;;;;20.05;74.90;98112.19;5056225;28;20222;-82
2022/06/16 05:03:02;;;;;;;5.27;4.87;;;;;;;20.81;71.83;98116.28;5056715;28;20208;-82
2022/06/16 05:05:30;;;;;;;5.40;4.77;;;;;;;21.37;69.17;98116.16;5055703;28;20727;-82
2022/06/16 05:07:56;;;;;;;6.07;5.53;;;;;;;21.48;67.69;98121.16;5055690;28;20262;-82
2022/06/16 05:10:23;;;;;;;5.97;5.47;;;;;;;21.66;66.94;98116.38;5055913;28;20306;-82
2022/06/16 05:12:49;;;;;;;6.27;5.67;;;;;;;22.01;65.00;98118.56;5055880;28;20211;-82
2022/06/16 05:15:16;;;;;;;6.57;5.97;;;;;;;22.34;63.74;98125.44;5053855;28;20219;-82
2022/06/16 05:17:42;;;;;;;6.03;5.57;;;;;;;22.09;63.90;98126.59;5055670;28;20246;-82
2022/06/16 05:20:11;;;;;;;5.53;5.10;;;;;;;21.87;64.78;98130.09;5055718;28;20212;-81
2022/06/16 05:22:38;;;;;;;5.87;5.37;;;;;;;21.51;66.96;98136.94;5055724;28;20263;-82
2022/06/16 05:25:05;;;;;;;5.70;5.20;;;;;;;21.16;69.00;98126.63;5055669;28;20223;-81
2022/06/16 05:27:32;;;;;;;5.73;5.27;;;;;;;20.85;70.52;98128.34;5055815;28;20218;-81
2022/06/16 05:29:59;;;;;;;6.00;5.40;;;;;;;20.66;71.97;98128.69;5055696;28;20216;-81
2022/06/16 05:32:26;;;;;;;5.90;5.30;;;;;;;20.56;71.80;98130.72;5055258;28;20273;-81
2022/06/16 05:34:52;;;;;;;5.80;5.30;;;;;;;20.76;71.06;98144.63;5055454;28;20215;-81
2022/06/16 05:37:20;;;;;;;6.00;5.50;;;;;;;21.15;69.13;98151.00;5055188;28;20254;-82
2022/06/16 05:39:49;;;;;;;5.30;4.80;;;;;;;21.49;67.28;98141.66;5053677;28;20212;-82
2022/06/16 05:42:16;;;;;;;5.67;5.17;;;;;;;22.22;65.74;98143.00;5054405;28;20639;-81
2022/06/16 05:44:43;;;;;;;5.27;4.73;;;;;;;23.35;60.66;98146.44;5055141;28;20219;-82
2022/06/16 05:47:09;;;;;;;5.70;5.20;;;;;;;24.82;53.17;98144.06;5055078;28;20257;-82
2022/06/16 05:49:38;;;;;;;5.70;4.93;;;;;;;26.09;49.53;98153.50;5055291;28;20218;-82
2022/06/16 05:52:08;;;;;;;5.03;4.53;;;;;;;26.62;44.91;98154.50;5055282;28;20216;-82
2022/06/16 05:54:36;;;;;;;5.20;4.70;;;;;;;26.95;43.84;98158.91;5055497;28;20212;-83
2022/06/16 05:57:04;;;;;;;6.10;4.70;;;;;;;26.55;46.35;98165.34;5055294;28;20602;-82
2022/06/16 05:59:30;;;;;;;5.43;4.90;;;;;;;26.63;46.16;98167.03;5055323;28;20223;-83
2022/06/16 06:01:57;;;;;;;5.30;4.80;;;;;;;26.45;47.41;98175.72;5055452;28;20216;-82
2022/06/16 06:04:24;;;;;;;4.70;4.30;;;;;;;25.51;48.69;98175.66;5055065;28;20226;-82
2022/06/16 06:06:51;;;;;;;5.00;4.50;;;;;;;24.73;50.62;98169.59;5053678;28;20298;-82
2022/06/16 06:17:33;;;;;;;5.13;4.43;;;;;;;27.40;41.19;98155.41;5040108;28;20346;-80
2022/06/16 06:20:00;;;;;;;5.57;4.30;;;;;;;28.13;40.38;98160.44;5054643;28;20686;-80
2022/06/16 06:22:27;;;;;;;4.33;3.90;;;;;;;29.12;39.21;98165.09;5055030;28;20222;-81
2022/06/16 06:24:56;;;;;;;4.47;4.07;;;;;;;29.87;36.79;98162.94;5055235;28;20211;-81
2022/06/16 06:27:31;;;;;;;4.47;3.55;;;;;;;30.00;36.27;98156.47;5055152;28;20219;-80
2022/06/16 06:29:58;;;;;;;4.05;3.75;;;;;;;30.16;37.15;98164.09;5054679;28;20238;-81
2022/06/16 06:32:25;;;;;;;5.57;4.15;;;;;;;30.24;34.46;98169.22;5052903;28;20337;-82
2022/06/16 06:34:52;;;;;;;4.57;4.15;;;;;;;30.24;34.25;98169.22;5054407;28;20219;-81
2022/06/16 06:37:22;;;;;;;4.57;4.05;;;;;;;30.30;33.58;98171.03;5054247;28;20240;-84
2022/06/16 06:39:50;;;;;;;4.78;3.85;;;;;;;30.03;34.19;98177.84;5054145;28;20212;-84
2022/06/16 06:42:17;;;;;;;4.25;3.85;;;;;;;29.58;34.99;98179.19;5054349;28;20212;-81
2022/06/16 06:44:45;;;;;;;4.43;3.83;;;;;;;28.66;36.56;98178.16;5054067;28;20212;-82
2022/06/16 06:47:18;;;;;;;4.13;3.72;;;;;;;27.28;38.48;98181.50;5054085;28;20212;-84
2022/06/16 06:49:44;;;;;;;5.60;4.25;;;;;;;26.44;40.48;98189.47;5053876;28;20679;-78
2022/06/16 06:52:11;;;;;;;4.78;4.00;;;;;;;25.96;41.73;98191.38;5053970;28;20214;-79
2022/06/16 06:54:38;;;;;;;4.70;4.20;;;;;;;25.78;42.33;98182.91;5053556;28;20220;-79
2022/06/16 06:57:04;;;;;;;4.38;3.97;;;;;;;26.39;41.49;98186.56;5053390;28;20696;-79
2022/06/16 06:59:31;;;;;;;4.72;4.25;;;;;;;27.53;39.67;98186.06;5052604;28;20214;-76
2022/06/16 07:01:59;;;;;;;5.47;4.33;;;;;;;28.46;38.26;98191.06;5053877;28;20216;-77
2022/06/16 07:04:26;;;;;;;5.73;4.23;;;;;;;28.66;37.33;98195.34;5053896;28;20209;-81
2022/06/16 07:06:52;;;;;;;4.85;4.35;;;;;;;28.32;38.59;98201.13;5053545;28;20563;-82
2022/06/16 07:09:19;;;;;;;5.93;4.13;;;;;;;28.09;38.95;98202.69;5053837;28;20212;-81
2022/06/16 07:11:45;;;;;;;5.88;4.55;;;;;;;27.33;39.97;98208.03;5053968;28;20215;-83
2022/06/16 07:14:12;;;;;;;5.10;4.60;;;;;;;26.61;41.41;98207.91;5053613;28;21616;-81
2022/06/16 07:16:39;;;;;;;5.57;4.85;;;;;;;25.86;43.12;98212.56;5053363;28;20244;-81
2022/06/16 07:19:07;;;;;;;5.63;4.78;;;;;;;25.31;45.03;98223.38;5053580;28;20212;-82
2022/06/16 07:21:34;;;;;;;4.97;4.30;;;;;;;25.03;46.04;98216.25;5053658;28;20251;-81
2022/06/16 07:24:00;;;;;;;5.65;4.72;;;;;;;24.87;46.56;98224.63;5052186;28;20216;-81
2022/06/16 07:26:27;;;;;;;6.93;5.30;;;;;;;24.84;46.79;98228.56;5053167;28;20220;-84
2022/06/16 07:28:55;;;;;;;5.03;4.55;;;;;;;24.90;47.45;98226.94;5053312;28;20295;-84
2022/06/16 07:31:22;;;;;;;6.87;5.13;;;;;;;24.84;46.54;98225.84;5053773;28;20247;-74
2022/06/16 07:33:48;;;;;;;5.73;5.20;;;;;;;24.79;47.18;98233.69;5053060;28;20216;-73
2022/06/16 07:36:16;;;;;;;5.20;4.70;;;;;;;24.83;47.77;98229.59;5053089;28;20220;-74
2022/06/16 07:38:43;;;;;;;5.13;4.63;;;;;;;24.95;46.92;98230.75;5052708;28;20618;-84
2022/06/16 07:43:54;;;;;;;5.10;4.53;;;;;;;24.86;46.80;98239.19;5052858;28;20266;-82
2022/06/16 07:46:20;;;;;;;4.90;4.47;;;;;;;25.09;47.48;98235.25;5053156;28;20220;-83
2022/06/16 07:48:47;;;;;;;4.90;4.40;;;;;;;25.28;46.48;98233.75;5053063;28;20215;-82
2022/06/16 07:51:13;;;;;;;6.37;4.80;;;;;;;25.48;46.29;98227.47;5051428;28;20215;-83
2022/06/16 07:53:41;;;;;;;5.00;4.60;;;;;;;25.63;47.34;98239.06;5053008;28;20219;-83
2022/06/16 07:56:08;;;;;;;5.38;4.47;;;;;;;25.71;47.91;98244.31;5052888;28;20298;-83
2022/06/16 07:58:35;;;;;;;4.93;4.53;;;;;;;25.85;46.17;98239.81;5052664;28;20243;-84
2022/06/16 08:01:04;;;;;;;5.55;4.30;;;;;;;25.88;46.99;98240.25;5053015;28;20238;-84
2022/06/16 08:03:31;;;;;;;5.87;4.50;;;;;;;26.09;46.69;98251.03;5052920;28;20677;-84
2022/06/16 08:05:58;;;;;;;5.50;4.55;;;;;;;26.33;45.84;98257.84;5052150;28;20685;-82
2022/06/16 08:08:26;;;;;;;4.60;4.20;;;;;;;26.45;44.61;98250.78;5052985;28;20212;-74
2022/06/16 08:10:55;;;;;;;5.20;4.28;;;;;;;26.71;44.24;98250.91;5052938;28;20214;-85
2022/06/16 08:13:23;;;;;;;6.00;4.55;;;;;;;27.06;43.54;98239.69;5053104;28;20216;-82
2022/06/16 08:15:51;;;;;;;4.38;3.95;;;;;;;27.54;42.91;98243.94;5051674;28;21630;-85
2022/06/16 08:18:20;;;;;;;5.40;4.50;;;;;;;27.86;42.08;98251.22;5052918;28;20238;-84
2022/06/16 08:20:47;;;;;;;4.18;3.83;;;;;;;27.81;42.57;98257.31;5052882;28;20262;-82
2022/06/16 08:23:14;;;;;;;5.20;4.22;;;;;;;27.36;41.59;98262.72;5036644;28;20212;-77
2022/06/16 08:25:43;;;;;;;4.05;3.72;;;;;;;26.97;42.88;98261.81;5052934;28;20211;-82
2022/06/16 08:28:13;;;;;;;4.68;4.10;;;;;;;26.72;43.71;98258.00;5052525;28;20223;-79
2022/06/16 08:30:44;;;;;;;4.63;4.10;;;;;;;26.55;43.92;98260.25;5052441;28;20220;-80
2022/06/16 08:33:13;;;;;;;4.95;4.10;;;;;;;26.41;44.89;98254.94;5052647;28;20242;-81
2022/06/16 08:35:40;;;;;;;4.40;3.97;;;;;;;26.22;45.85;98267.34;5052683;28;20212;-81
2022/06/16 08:38:07;;;;;;;4.63;4.22;;;;;;;26.18;46.77;98262.53;5052339;28;20254;-82
2022/06/16 08:40:36;;;;;;;5.40;4.10;;;;;;;26.27;46.66;98253.22;5050084;28;20231;-80
2022/06/16 08:43:06;;;;;;;5.78;4.10;;;;;;;26.49;45.68;98258.31;5049121;28;20220;-76
2022/06/16 08:45:37;;;;;;;6.55;4.05;;;;;;;26.70;44.69;98263.63;5051683;28;20244;-76
2022/06/16 08:48:19;;;;;;;5.15;4.07;;;;;;;26.83;44.35;98271.78;5051036;28;20255;-76
2022/06/16 08:50:49;;;;;;;7.22;4.28;;;;;;;26.91;43.11;98278.91;5033946;28;20426;-73
2022/06/16 08:53:30;;;;;;;4.82;4.30;;;;;;;26.80;43.04;98283.06;5038832;28;20208;-77
2022/06/16 08:56:01;;;;;;;4.60;3.80;;;;;;;26.63;43.67;98300.72;5045336;28;20211;-75
2022/06/16 08:58:35;;;;;;;5.47;4.38;;;;;;;26.29;43.30;98295.34;5051200;28;20326;-79
2022/06/16 09:01:08;;;;;;;4.72;4.32;;;;;;;26.14;43.64;98305.44;5051272;28;20277;-75
2022/06/16 09:03:40;;;;;;;5.10;4.60;;;;;;;25.91;45.16;98299.47;5050692;28;20213;-76
2022/06/16 09:06:20;;;;;;;5.55;5.00;;;;;;;25.71;45.84;98303.88;5051607;28;20303;-79
2022/06/16 09:08:56;;;;;;;5.32;4.78;;;;;;;25.51;46.65;98305.59;5043515;28;20215;-80
2022/06/16 09:11:33;;;;;;;5.60;5.05;;;;;;;25.50;47.35;98312.03;5051460;28;20212;-82
2022/06/16 09:17:37;;;;;;;7.00;5.87;;;;;;;25.61;47.27;98316.91;5045874;28;20358;-81
2022/06/16 09:20:13;;;;;;;6.43;5.82;;;;;;;25.60;47.65;98314.41;5055675;28;20309;-79
2022/06/16 09:23:08;;;;;;;7.30;6.60;;;;;;;25.67;48.60;98307.19;5055696;28;20218;-82
2022/06/16 09:25:51;;;;;;;5.22;4.82;;;;;;;25.95;48.98;98313.44;5056764;28;20212;-81
2022/06/16 09:28:25;;;;;;;5.60;4.82;;;;;;;26.17;46.93;98305.06;5048856;28;20215;-82
2022/06/16 09:30:55;;;;;;;5.18;4.78;;;;;;;26.36;46.04;98307.03;5055466;28;20219;-82
2022/06/16 09:33:32;;;;;;;6.30;5.00;;;;;;;26.37;44.54;98319.56;5055363;28;20216;-82
2022/06/16 09:36:02;;;;;;;5.38;4.88;;;;;;;26.26;44.49;98322.81;5054656;28;20590;-80
2022/06/16 09:38:36;;;;;;;5.75;5.07;;;;;;;26.27;45.25;98319.06;5055254;28;20335;-85
2022/06/16 09:42:32;;;;;;;5.32;4.82;;;;;;;26.26;45.95;98316.56;5048267;28;20222;-82
2022/06/16 09:43:59;;;;;;;5.55;4.82;;;;;;;26.40;46.01;98319.13;5054759;28;21255;-82
2022/06/16 09:46:32;;;;;;;5.13;4.63;;;;;;;26.58;45.56;98322.19;5055222;28;20212;-80
2022/06/16 09:49:05;;;;;;;5.60;4.93;;;;;;;26.61;44.71;98332.63;5054904;28;20211;-81
2022/06/16 09:51:36;;;;;;;5.47;4.97;;;;;;;26.52;44.84;98333.78;5055074;28;20222;-82
2022/06/16 09:54:11;;;;;;;4.88;4.43;;;;;;;26.57;45.39;98328.66;5055144;28;20223;-82
2022/06/16 09:56:44;;;;;;;5.22;4.70;;;;;;;26.65;45.04;98327.66;5055161;28;20261;-82
2022/06/16 09:59:13;;;;;;;5.35;4.65;;;;;;;26.76;45.42;98330.59;5054928;28;20236;-80
2022/06/16 10:01:45;;;;;;;7.32;5.18;;;;;;;26.73;45.69;98333.75;5053480;28;20311;-79
2022/06/16 10:04:13;;;;;;;5.28;4.22;;;;;;;26.68;46.15;98327.22;5054622;28;20219;-83
2022/06/16 10:06:53;;;;;;;5.70;4.90;;;;;;;26.68;46.06;98333.50;5060378;28;20227;-80
2022/06/16 10:09:26;;;;;;;5.40;4.90;;;;;;;26.82;45.21;98332.50;5053362;28;20624;-79
2022/06/16 10:12:08;;;;;;;6.22;4.63;;;;;;;26.82;45.60;98340.66;5055041;28;20227;-81
2022/06/16 10:14:42;;;;;;;5.10;4.60;;;;;;;26.80;45.09;98339.16;5048227;28;20212;-78
2022/06/16 10:17:10;;;;;;;4.63;4.15;;;;;;;26.84;45.10;98333.16;5054616;28;20590;-81
2022/06/16 10:19:43;;;;;;;5.07;4.30;;;;;;;26.77;44.96;98347.72;5054547;28;20685;-79
2022/06/16 10:22:13;;;;;;;4.97;4.40;;;;;;;26.81;45.35;98349.81;5054224;28;20223;-82
2022/06/16 10:24:45;;;;;;;5.13;4.32;;;;;;;27.02;45.49;98341.56;5054311;28;20723;-81
2022/06/16 10:27:19;;;;;;;4.70;4.30;;;;;;;27.22;44.75;98347.91;5052381;28;20262;-83
2022/06/16 10:29:54;;;;;;;5.10;4.57;;;;;;;27.15;43.00;98357.88;5054388;28;20225;-80
2022/06/16 10:32:36;;;;;;;6.28;4.15;;;;;;;27.06;43.02;98350.94;5054357;28;20203;-80
2022/06/16 10:35:08;;;;;;;4.65;4.15;;;;;;;27.15;44.30;98355.16;5053998;28;20613;-81
2022/06/16 10:37:41;;;;;;;4.90;4.40;;;;;;;27.20;44.20;98363.53;5054075;28;20336;-80
2022/06/16 10:40:13;;;;;;;6.57;4.30;;;;;;;27.32;42.85;98374.66;5054662;28;20630;-81
2022/06/16 10:42:43;;;;;;;5.65;4.38;;;;;;;27.21;43.50;98364.38;5054420;28;20222;-80
2022/06/16 10:45:14;;;;;;;5.90;4.38;;;;;;;27.27;43.67;98370.66;5054317;28;20307;-79
2022/06/16 10:47:52;;;;;;;4.88;4.38;;;;;;;27.19;43.84;98375.44;5054265;28;20212;-82
2022/06/16 10:50:26;;;;;;;4.80;4.30;;;;;;;27.32;44.26;98374.66;5054553;28;20222;-82
2022/06/16 10:52:58;;;;;;;5.63;4.57;;;;;;;27.44;43.82;98384.69;5045692;28;20218;-81
2022/06/16 10:55:29;;;;;;;4.85;4.10;;;;;;;27.50;42.79;98381.16;5053809;28;20216;-71
2022/06/16 10:58:01;;;;;;;4.90;4.40;;;;;;;27.52;44.30;98395.38;5053852;28;20273;-71
2022/06/16 11:00:32;;;;;;;4.40;4.00;;;;;;;27.75;42.44;98393.94;5052841;28;20216;-85
2022/06/16 11:03:07;;;;;;;4.65;4.00;;;;;;;27.75;42.91;98399.38;5051487;28;20596;-86
2022/06/16 11:05:50;;;;;;;4.35;3.95;;;;;;;27.74;41.83;98405.00;5052054;28;20299;-86
2022/06/16 11:08:18;;;;;;;5.10;4.05;;;;;;;27.70;42.74;98401.88;5052662;28;20208;-73
2022/06/16 11:10:52;;;;;;;4.47;4.07;;;;;;;27.72;42.26;98398.94;5052481;28;20212;-82
2022/06/16 11:13:23;;;;;;;5.50;4.05;;;;;;;27.77;41.81;98410.06;5052560;28;20212;-78
2022/06/16 11:15:51;;;;;;;5.03;4.03;;;;;;;27.61;42.44;98403.13;5052418;28;20220;-73
2022/06/16 11:18:21;;;;;;;4.40;3.85;;;;;;;27.59;42.42;98404.38;5040097;28;20612;-72
2022/06/16 11:20:52;;;;;;;5.13;3.80;;;;;;;27.69;41.82;98421.94;5050724;28;20227;-73
2022/06/16 11:23:25;;;;;;;4.43;4.03;;;;;;;27.75;41.49;98414.84;5052258;28;20246;-74
2022/06/16 11:25:59;;;;;;;4.75;3.85;;;;;;;27.74;41.39;98418.59;5051932;28;20218;-74
2022/06/16 11:28:27;;;;;;;6.45;4.00;;;;;;;27.78;41.13;98414.44;5052118;28;20216;-74
2022/06/16 11:30:56;;;;;;;4.65;3.80;;;;;;;27.79;41.72;98426.97;5051727;28;20215;-80
2022/06/16 11:36:20;;;;;;;5.65;3.33;;;;;;;27.95;40.69;98421.16;5040885;28;20219;-79
2022/06/16 11:38:54;;;;;;;3.60;3.30;;;;;;;28.06;39.68;98417.81;5051479;28;20247;-81
2022/06/16 11:41:25;;;;;;;4.03;3.53;;;;;;;28.11;40.80;98420.72;5051562;28;20261;-81
2022/06/16 11:44:01;;;;;;;3.70;3.40;;;;;;;28.32;40.08;98423.25;5048228;28;20208;-81
2022/06/16 11:46:33;;;;;;;3.80;3.40;;;;;;;28.43;39.04;98430.81;5050080;28;20212;-77
2022/06/16 11:49:10;;;;;;;3.70;3.40;;;;;;;28.39;38.47;98424.09;5051757;28;20216;-81
2022/06/16 11:51:45;;;;;;;4.57;3.70;;;;;;;28.25;38.99;98417.78;5051898;28;20215;-74
2022/06/16 11:54:29;;;;;;;4.97;3.63;;;;;;;28.11;38.86;98421.56;5051929;28;20215;-74
2022/06/16 11:57:03;;;;;;;4.82;3.72;;;;;;;28.06;40.22;98415.09;5051475;28;20219;-74
2022/06/16 11:59:51;;;;;;;3.72;3.42;;;;;;;28.29;38.96;98418.22;5051282;28;20239;-79
2022/06/16 12:02:40;;;;;;;4.15;3.85;;;;;;;28.28;37.96;98416.53;5051433;28;20704;-74
2022/06/16 12:05:19;;;;;;;3.88;3.45;;;;;;;28.21;38.92;98422.00;5048486;28;20223;-74
2022/06/16 12:08:05;;;;;;;4.35;3.60;;;;;;;28.17;38.13;98414.44;5051683;28;20591;-74
2022/06/16 12:10:42;;;;;;;5.25;3.70;;;;;;;28.21;38.79;98415.72;5051582;28;20218;-74
2022/06/16 12:13:15;;;;;;;3.83;3.40;;;;;;;28.16;38.71;98410.06;5049965;28;20247;-74
2022/06/16 12:15:48;;;;;;;4.43;3.50;;;;;;;28.12;38.49;98406.13;5051378;28;20216;-75